createdAt,value
2023-05-04T00:00:15.689Z,93.90
2023-05-04T00:04:17.801Z,93.70
2023-05-04T00:08:19.659Z,93.70
2023-05-04T00:12:21.613Z,93.40
2023-05-04T00:16:23.621Z,93.50
2023-05-04T00:20:25.694Z,93.30
2023-05-04T00:24:28.524Z,93.60
2023-05-04T00:28:30.643Z,93.80
2023-05-04T00:32:32.892Z,93.80
2023-05-04T00:36:35.424Z,93.50
2023-05-04T00:40:37.324Z,93.40
2023-05-04T00:44:41.527Z,93.50
2023-05-04T00:48:46.954Z,93.50
2023-05-04T00:52:49.318Z,93.40
2023-05-04T00:56:51.985Z,93.50
2023-05-04T01:00:54.025Z,93.40
2023-05-04T01:04:56.362Z,93.70
2023-05-04T01:09:04.370Z,93.50
2023-05-04T01:13:12.997Z,93.40
2023-05-04T01:17:16.274Z,93.60
2023-05-04T01:21:18.284Z,93.80
2023-05-04T01:25:20.517Z,93.90
2023-05-04T01:29:31.776Z,94.00
2023-05-04T01:33:34.462Z,93.90
2023-05-04T01:37:36.490Z,93.90
2023-05-04T01:41:38.502Z,94.40
2023-05-04T01:45:40.553Z,94.20
2023-05-04T01:49:42.501Z,94.20
2023-05-04T01:53:44.570Z,94.40
2023-05-04T01:57:46.534Z,94.30
2023-05-04T02:01:48.555Z,94.10
2023-05-04T02:05:50.698Z,94.00
2023-05-04T02:09:52.495Z,94.10
2023-05-04T02:13:54.517Z,94.00
2023-05-04T02:17:56.760Z,93.80
2023-05-04T02:21:58.563Z,93.80
2023-05-04T02:26:00.782Z,93.60
2023-05-04T02:30:04.545Z,93.50
2023-05-04T02:34:06.824Z,93.80
2023-05-04T02:38:08.869Z,93.70
2023-05-04T02:42:10.965Z,93.60
2023-05-04T02:46:13.116Z,94.50
2023-05-04T02:50:14.997Z,94.20
2023-05-04T02:54:16.921Z,94.00
2023-05-04T02:58:18.914Z,94.00
2023-05-04T03:02:20.985Z,93.80
2023-05-04T03:06:23.169Z,93.80
2023-05-04T03:10:24.939Z,93.70
2023-05-04T03:14:26.980Z,93.90
2023-05-04T03:18:28.991Z,94.20
2023-05-04T03:22:31.080Z,94.20
2023-05-04T03:26:33.371Z,94.00
2023-05-04T03:30:36.320Z,93.80
2023-05-04T03:34:39.030Z,93.60
2023-05-04T03:38:42.201Z,93.80
2023-05-04T03:42:44.695Z,93.80
2023-05-04T03:46:46.859Z,93.80
2023-05-04T03:50:48.752Z,93.80
2023-05-04T03:54:50.587Z,93.90
2023-05-04T03:58:52.487Z,93.70
2023-05-04T04:02:59.681Z,94.10
2023-05-04T04:07:02.008Z,94.00
2023-05-04T04:11:05.847Z,93.90
2023-05-04T04:15:08.153Z,93.80
2023-05-04T04:19:10.438Z,94.00
2023-05-04T04:23:12.340Z,94.90
2023-05-04T04:27:15.333Z,95.00
2023-05-04T04:31:20.922Z,94.80
2023-05-04T04:35:27.468Z,94.70
2023-05-04T04:39:29.736Z,94.50
2023-05-04T04:43:33.650Z,94.80
2023-05-04T04:47:36.157Z,94.80
2023-05-04T04:51:38.451Z,94.70
2023-05-04T04:55:41.817Z,94.60
2023-05-04T04:59:43.874Z,94.60
2023-05-04T05:03:46.173Z,94.80
2023-05-04T05:07:48.078Z,95.10
2023-05-04T05:11:50.110Z,95.10
2023-05-04T05:15:52.047Z,95.20
2023-05-04T05:19:54.038Z,95.00
2023-05-04T05:23:56.113Z,95.30
2023-05-04T05:27:58.252Z,95.40
2023-05-04T05:32:00.283Z,96.00
2023-05-04T05:36:02.428Z,96.00
2023-05-04T05:40:08.088Z,95.90
2023-05-04T05:44:11.688Z,96.60
2023-05-04T05:48:15.076Z,97.00
2023-05-04T05:52:17.782Z,96.90
2023-05-04T05:56:19.568Z,96.50
2023-05-04T06:00:21.484Z,96.10
2023-05-04T06:04:23.374Z,95.80
2023-05-04T06:08:25.604Z,95.70
2023-05-04T06:12:27.725Z,95.90
2023-05-04T06:16:30.061Z,96.00
2023-05-04T06:37:43.225Z,97.10
2023-05-04T06:41:45.523Z,97.10
2023-05-04T06:45:47.715Z,96.90
2023-05-04T06:49:49.501Z,96.70
2023-05-04T06:53:51.313Z,96.60
2023-05-04T06:57:53.148Z,96.60
2023-05-04T07:01:55.221Z,96.90
2023-05-04T07:05:57.030Z,97.10
2023-05-04T07:09:59.031Z,97.00
2023-05-04T07:14:01.104Z,96.90
2023-05-04T07:18:03.327Z,96.30
2023-05-04T07:22:05.515Z,96.90
2023-05-04T07:26:08.315Z,96.50
2023-05-04T07:30:10.418Z,96.60
2023-05-04T07:34:12.517Z,96.30
2023-05-04T07:38:14.879Z,96.40
2023-05-04T07:42:17.049Z,96.10
2023-05-04T07:46:20.720Z,96.20
2023-05-04T07:50:22.769Z,95.80
2023-05-04T07:54:24.852Z,96.00
2023-05-04T07:58:26.940Z,96.10
2023-05-04T08:02:28.782Z,96.10
2023-05-04T08:06:30.818Z,95.70
2023-05-04T08:10:37.004Z,95.80
2023-05-04T08:14:40.529Z,95.40
2023-05-04T08:18:43.429Z,95.70
2023-05-04T08:22:45.660Z,95.60
2023-05-04T08:26:59.778Z,95.80
2023-05-04T08:31:06.719Z,95.40
2023-05-04T08:35:09.131Z,95.50
2023-05-04T08:39:12.055Z,96.00
2023-05-04T08:43:14.215Z,95.60
2023-05-04T08:47:16.455Z,95.10
2023-05-04T08:51:19.995Z,96.10
2023-05-04T08:55:22.279Z,95.90
2023-05-04T08:59:25.431Z,95.60
2023-05-04T09:03:28.419Z,94.70
2023-05-04T09:07:30.329Z,94.40
2023-05-04T09:11:32.320Z,94.60
2023-05-04T09:15:34.423Z,94.50
2023-05-04T09:19:36.855Z,94.50
2023-05-04T09:23:49.661Z,94.90
2023-05-04T09:27:54.881Z,94.40
2023-05-04T09:31:57.030Z,94.20
2023-05-04T09:36:11.966Z,93.70
2023-05-04T09:40:14.881Z,94.50
2023-05-04T09:44:21.294Z,93.30
2023-05-04T09:48:31.009Z,93.70
2023-05-04T09:52:33.530Z,93.40
2023-05-04T09:56:52.356Z,93.70
2023-05-04T10:00:54.420Z,93.20
2023-05-04T10:04:58.485Z,93.00
2023-05-04T10:09:00.738Z,93.20
2023-05-04T10:13:02.532Z,94.60
2023-05-04T10:17:16.749Z,93.60
2023-05-04T10:21:50.166Z,93.10
2023-05-04T10:25:58.051Z,92.70
2023-05-04T10:30:01.802Z,93.10
2023-05-04T10:34:03.903Z,92.90
2023-05-04T10:38:06.434Z,92.70
2023-05-04T10:42:08.889Z,92.80
2023-05-04T10:46:18.770Z,92.60
2023-05-04T10:50:21.097Z,93.10
2023-05-04T10:54:23.031Z,91.70
2023-05-04T10:58:30.681Z,92.70
2023-05-04T11:02:35.197Z,91.80
2023-05-04T11:06:38.356Z,91.80
2023-05-04T11:10:40.792Z,91.10
2023-05-04T11:14:43.459Z,90.90
2023-05-04T11:18:45.556Z,90.30
2023-05-04T11:22:48.487Z,90.60
2023-05-04T11:26:50.440Z,90.40
2023-05-04T11:34:55.160Z,89.80
2023-05-04T11:38:57.676Z,90.40
2023-05-04T11:43:00.632Z,88.60
2023-05-04T11:47:03.150Z,87.20
2023-05-04T11:51:06.565Z,87.80
2023-05-04T11:55:10.781Z,87.70
2023-05-04T11:59:12.794Z,86.60
2023-05-04T12:03:27.982Z,85.80
2023-05-04T12:07:37.687Z,86.90
2023-05-04T12:11:40.680Z,88.60
2023-05-04T12:15:42.534Z,86.20
2023-05-04T12:20:02.403Z,85.10
2023-05-04T12:24:05.895Z,83.10
2023-05-04T12:28:08.122Z,83.00
2023-05-04T12:32:10.333Z,84.40
2023-05-04T12:36:12.530Z,85.70
2023-05-04T12:40:27.682Z,82.10
2023-05-04T12:44:31.003Z,83.60
2023-05-04T12:48:33.169Z,81.00
2023-05-04T12:52:35.363Z,83.40
2023-05-04T12:56:37.668Z,81.40
2023-05-04T13:00:40.213Z,81.40
2023-05-04T13:04:42.108Z,80.50
2023-05-04T13:08:44.434Z,81.10
2023-05-04T13:12:47.343Z,80.00
2023-05-04T13:16:50.984Z,79.50
2023-05-04T13:20:56.677Z,80.90
2023-05-04T13:24:59.004Z,81.40
2023-05-04T13:29:03.439Z,81.00
2023-05-04T13:33:10.465Z,80.40
2023-05-04T13:37:23.609Z,79.30
2023-05-04T13:41:26.782Z,78.40
2023-05-04T13:45:28.968Z,79.30
2023-05-04T13:49:30.878Z,78.30
2023-05-04T13:53:32.871Z,77.20
2023-05-04T13:57:34.977Z,79.60
2023-05-04T14:01:36.899Z,81.20
2023-05-04T14:05:38.811Z,80.50
2023-05-04T14:09:40.641Z,79.20
2023-05-04T14:13:42.634Z,80.10
2023-05-04T14:17:44.519Z,79.20
2023-05-04T14:21:47.031Z,79.20
2023-05-04T14:25:53.499Z,77.60
2023-05-04T14:29:55.499Z,80.00
2023-05-04T14:33:57.572Z,77.60
2023-05-04T14:37:59.813Z,78.20
2023-05-04T14:42:02.752Z,77.00
2023-05-04T14:46:04.886Z,78.80
2023-05-04T14:50:07.393Z,78.80
2023-05-04T14:54:09.896Z,78.80
2023-05-04T14:58:12.304Z,77.40
2023-05-04T15:02:14.173Z,77.80
2023-05-04T15:06:15.992Z,77.70
2023-05-04T15:10:18.177Z,79.60
2023-05-04T15:14:21.036Z,78.80
2023-05-04T15:18:24.033Z,79.10
2023-05-04T15:22:27.857Z,78.60
2023-05-04T15:26:31.060Z,76.50
2023-05-04T15:30:33.300Z,76.90
2023-05-04T15:34:35.318Z,75.70
2023-05-04T15:38:37.416Z,75.70
2023-05-04T15:42:39.452Z,78.00
2023-05-04T15:46:41.477Z,78.10
2023-05-04T15:50:43.349Z,78.80
2023-05-04T15:54:47.326Z,77.90
2023-05-04T15:58:49.267Z,78.00
2023-05-04T16:02:51.266Z,76.40
2023-05-04T16:06:53.387Z,77.80
2023-05-04T16:10:57.272Z,78.10
2023-05-04T16:14:59.141Z,78.00
2023-05-04T16:19:01.329Z,78.80
2023-05-04T16:23:03.092Z,77.60
2023-05-04T16:27:05.049Z,77.50
2023-05-04T16:31:09.589Z,76.20
2023-05-04T16:35:13.205Z,77.60
2023-05-04T16:39:16.481Z,77.80
2023-05-04T16:43:18.538Z,75.90
2023-05-04T16:47:20.553Z,76.70
2023-05-04T16:51:22.600Z,76.90
2023-05-04T16:55:26.879Z,76.90
2023-05-04T16:59:29.372Z,77.40
2023-05-04T17:03:32.771Z,76.40
2023-05-04T17:07:34.830Z,77.70
2023-05-04T17:11:36.908Z,77.70
2023-05-04T17:15:39.025Z,76.90
2023-05-04T17:19:41.289Z,77.40
2023-05-04T17:23:43.149Z,77.00
2023-05-04T17:27:45.122Z,78.50
2023-05-04T17:31:47.306Z,80.00
2023-05-04T17:35:49.834Z,79.60
2023-05-04T17:39:52.010Z,80.10
2023-05-04T17:43:55.549Z,80.30
2023-05-04T17:47:57.611Z,81.30
2023-05-04T17:52:01.554Z,81.60
2023-05-04T17:56:03.854Z,82.40
2023-05-04T18:00:07.460Z,82.50
2023-05-04T18:04:09.983Z,82.60
2023-05-04T18:08:12.768Z,83.10
2023-05-04T18:12:14.933Z,83.40
2023-05-04T18:16:17.704Z,83.40
2023-05-04T18:20:19.694Z,84.40
2023-05-04T18:24:21.773Z,84.60
2023-05-04T18:28:23.933Z,84.60
2023-05-04T18:32:26.444Z,84.60
2023-05-04T18:36:28.985Z,85.30
2023-05-04T18:40:31.905Z,85.60
2023-05-04T18:44:33.974Z,85.90
2023-05-04T18:48:36.000Z,86.00
2023-05-04T18:52:38.039Z,85.80
2023-05-04T18:56:40.060Z,87.30
2023-05-04T19:00:46.219Z,87.80
2023-05-04T19:04:48.319Z,87.80
2023-05-04T19:08:50.381Z,87.60
2023-05-04T19:12:52.504Z,88.40
2023-05-04T19:16:54.569Z,89.60
2023-05-04T19:20:56.652Z,89.30
2023-05-04T19:24:58.480Z,89.90
2023-05-04T19:29:00.688Z,90.20
2023-05-04T19:33:03.574Z,90.30
2023-05-04T19:37:05.628Z,90.50
2023-05-04T19:41:07.678Z,90.90
2023-05-04T19:45:09.941Z,90.80
2023-05-04T19:49:12.034Z,91.00
2023-05-04T19:53:16.152Z,90.80
2023-05-04T19:57:18.320Z,90.80
2023-05-04T20:01:20.633Z,91.20
2023-05-04T20:05:22.610Z,91.40
2023-05-04T20:09:24.618Z,91.30
2023-05-04T20:13:26.461Z,91.30
2023-05-04T20:17:28.773Z,91.40
2023-05-04T20:21:31.151Z,91.70
2023-05-04T20:25:33.076Z,91.50
2023-05-04T20:29:35.326Z,91.70
2023-05-04T20:33:37.406Z,92.30
2023-05-04T20:37:39.437Z,92.20
2023-05-04T20:41:41.628Z,92.10
2023-05-04T20:45:43.849Z,92.00
2023-05-04T20:49:46.015Z,92.10
2023-05-04T20:53:48.116Z,92.20
2023-05-04T20:57:52.128Z,92.20
2023-05-04T21:01:54.249Z,92.20
2023-05-04T21:05:57.075Z,92.40
2023-05-04T21:09:59.204Z,92.60
2023-05-04T21:14:01.041Z,92.70
2023-05-04T21:18:03.045Z,92.70
2023-05-04T21:22:05.320Z,92.70
2023-05-04T21:26:07.157Z,93.00
2023-05-04T21:30:10.078Z,93.00
2023-05-04T21:34:12.395Z,92.80
2023-05-04T21:38:14.439Z,92.90
2023-05-04T21:42:16.573Z,93.00
2023-05-04T21:46:18.623Z,93.00
2023-05-04T21:50:20.576Z,93.10
2023-05-04T21:54:23.674Z,93.10
2023-05-04T21:58:25.822Z,93.30
2023-05-04T22:02:27.566Z,93.40
2023-05-04T22:06:29.524Z,93.20
2023-05-04T22:10:31.603Z,93.20
2023-05-04T22:14:33.761Z,93.30
2023-05-04T22:18:35.810Z,93.40
2023-05-04T22:22:37.739Z,93.40
2023-05-04T22:26:40.830Z,93.40
2023-05-04T22:30:43.033Z,93.50
2023-05-04T22:34:46.114Z,93.50
2023-05-04T22:38:50.339Z,93.50
2023-05-04T22:42:52.388Z,93.50
2023-05-04T22:46:54.559Z,93.60
2023-05-04T22:50:56.524Z,93.70
2023-05-04T22:54:58.939Z,93.70
2023-05-04T22:59:01.156Z,93.70
2023-05-04T23:03:03.638Z,93.60
2023-05-04T23:07:05.579Z,93.70
2023-05-04T23:11:07.511Z,93.70
2023-05-04T23:15:09.852Z,93.70
2023-05-04T23:19:12.066Z,93.60
2023-05-04T23:23:14.243Z,93.80
2023-05-04T23:27:16.117Z,93.80
2023-05-04T23:31:18.536Z,93.50
2023-05-04T23:35:20.768Z,93.60
2023-05-04T23:39:22.687Z,93.60
2023-05-04T23:43:24.725Z,93.60
2023-05-04T23:47:26.740Z,93.70
2023-05-04T23:51:28.791Z,93.70
2023-05-04T23:55:30.884Z,93.60
2023-05-04T23:59:33.934Z,93.60
